This is the latest recevied weather packets stored in our database for station/object W6ORV. If no packets are shown the sender has not sent any weather packets the latest 10 day(s).
| Time | Temp. | Humidity | Pressure | Rain* | Wind** | Luminosity | Snow |
|---|---|---|---|---|---|---|---|
| 1778266729 | 26.11° C | 50% | 4301.8 hPa | 0 mm | - | 778 W/m² | - |
| 1778266427 | 24.44° C | 51% | 4301.8 hPa | 0 mm | - | 800 W/m² | - |
| 1778266124 | 24.44° C | 53% | 4301.8 hPa | 0 mm | - | 819 W/m² | - |
| 1778265821 | 25.56° C | 52% | 4302 hPa | 0 mm | - | 833 W/m² | - |
| 1778265518 | 25° C | 53% | 4302 hPa | 0 mm | - | 838 W/m² | - |
| 1778265214 | 23.89° C | 55% | 4302.2 hPa | 0 mm | - | 841 W/m² | - |
| 1778264910 | 23.33° C | 55% | 4302.2 hPa | 0 mm | - | 836 W/m² | - |
| 1778264607 | 23.89° C | 55% | 4302.3 hPa | 0 mm | - | 848 W/m² | - |
| 1778264303 | 22.78° C | 57% | 4302.3 hPa | 0 mm | - | 850 W/m² | - |
| 1778264000 | 22.22° C | 58% | 4302.3 hPa | 0 mm | - | 843 W/m² | - |
| 1778263697 | 22.22° C | 58% | 4302.3 hPa | 0 mm | - | 866 W/m² | - |
| 1778263394 | 21.11° C | 62% | 4302.5 hPa | 0 mm | - | 846 W/m² | - |
| 1778263090 | 20.56° C | 63% | 4302.4 hPa | 0 mm | - | 844 W/m² | - |
| 1778262786 | 20.56° C | 64% | 4302.4 hPa | 0 mm | - | 812 W/m² | - |
| 1778262485 | 19.44° C | 66% | 4302.6 hPa | 0 mm | - | 847 W/m² | - |
| 1778262182 | 20° C | 66% | 4302.4 hPa | 0 mm | - | 857 W/m² | - |
| 1778261878 | 20° C | 67% | 4302.6 hPa | 0 mm | - | 817 W/m² | - |
| 1778261575 | 18.89° C | 68% | 4302.6 hPa | 0 mm | - | 792 W/m² | - |
| 1778261271 | 18.89° C | 69% | 4302.7 hPa | 0 mm | - | 792 W/m² | - |
| 1778260968 | 17.78° C | 73% | 4302.5 hPa | 0 mm | - | 792 W/m² | - |
| 1778260664 | 17.78° C | 72% | 4302.8 hPa | 0 mm | - | 812 W/m² | - |
| 1778260360 | 16.67° C | 77% | 4302.8 hPa | 0 mm | - | 776 W/m² | - |
| 1778260057 | 16.11° C | 77% | 4302.9 hPa | 0 mm | - | 747 W/m² | - |
| 1778259755 | 16.11° C | 78% | 4302.9 hPa | 0 mm | - | 722 W/m² | - |
| 1778259452 | 15.56° C | 79% | 4302.8 hPa | 0 mm | - | 721 W/m² | - |
* Rain latest hour (hover to see other rain measurements)
** Current wind speed in m/s (hover to see current wind gust speed)